UCFM

Bishkek/Manas International Airport

Airport
ICAO code
UCFM
IATA Code
FRU
Summary
ICAO Region
APAC
ICAO Territory
Location

Bishkek, Chuy, Kyrgyzstan,

Serving
Bishkek
Elevation
2058 ft
Coordinates
43° 3' 41" N , 74° 28' 39" E
KCC
BSk
Metar
Observation
UCFM 101530Z 06005MPS 9999 SCT066CB 21/13 Q1010 R26/0///95 NOSIG
Station
Manas International Airport
Date/Time
2022-08-10 15:30:00
Wind direction
60°
Lowest cloud amount
scattered clouds
Temperature
21°C
Dew point
13°C
Humidity
60%
QNH
1010 hPa
Weather condition
n/a

Description

International airport serving the city of Bishkek.

Climatology

Cold Semi-arid climate (Köppen climate classification BSk). - Hot, sometimes extremely hot summers and cold, sometimes very cold winters. Some snowfall during the winter. Areas featuring cold semi-arid climates are sometimes subject to major temperature swings during a 24 hour period.

Airport map

Aerial View

SKYbrary Partners:

Safety knowledge contributed by: